sensor_id;sensor_type;location;lat;lon;timestamp;P1;durP1;ratioP1;P2;durP2;ratioP2
16272;SDS011;8244;50.044;9.006;2022-10-26T00:02:08;9.85;;;3.05;;
16272;SDS011;8244;50.044;9.006;2022-10-26T00:07:11;8.68;;;3.20;;
16272;SDS011;8244;50.044;9.006;2022-10-26T00:12:12;11.38;;;5.25;;
16272;SDS011;8244;50.044;9.006;2022-10-26T00:17:14;11.50;;;4.00;;
16272;SDS011;8244;50.044;9.006;2022-10-26T00:22:17;8.90;;;3.88;;
16272;SDS011;8244;50.044;9.006;2022-10-26T00:27:19;14.52;;;4.10;;
16272;SDS011;8244;50.044;9.006;2022-10-26T00:32:20;11.38;;;4.25;;
16272;SDS011;8244;50.044;9.006;2022-10-26T00:37:23;11.10;;;4.15;;
16272;SDS011;8244;50.044;9.006;2022-10-26T00:42:26;12.23;;;4.10;;
16272;SDS011;8244;50.044;9.006;2022-10-26T00:47:30;9.45;;;3.53;;
16272;SDS011;8244;50.044;9.006;2022-10-26T00:52:41;11.05;;;3.85;;
16272;SDS011;8244;50.044;9.006;2022-10-26T00:57:42;9.35;;;3.25;;
16272;SDS011;8244;50.044;9.006;2022-10-26T01:02:44;9.23;;;3.30;;
16272;SDS011;8244;50.044;9.006;2022-10-26T01:07:50;11.30;;;3.53;;
16272;SDS011;8244;50.044;9.006;2022-10-26T01:12:52;8.73;;;3.25;;
16272;SDS011;8244;50.044;9.006;2022-10-26T01:17:56;13.80;;;3.72;;
16272;SDS011;8244;50.044;9.006;2022-10-26T01:23:05;10.00;;;3.85;;
16272;SDS011;8244;50.044;9.006;2022-10-26T01:28:12;10.07;;;3.60;;
16272;SDS011;8244;50.044;9.006;2022-10-26T01:33:31;11.77;;;3.67;;
16272;SDS011;8244;50.044;9.006;2022-10-26T01:38:41;12.75;;;4.15;;
16272;SDS011;8244;50.044;9.006;2022-10-26T01:43:48;13.52;;;3.88;;
16272;SDS011;8244;50.044;9.006;2022-10-26T01:48:56;8.18;;;3.40;;
16272;SDS011;8244;50.044;9.006;2022-10-26T01:54:01;9.45;;;3.83;;
16272;SDS011;8244;50.044;9.006;2022-10-26T01:59:12;11.43;;;3.90;;
16272;SDS011;8244;50.044;9.006;2022-10-26T02:04:39;6.30;;;3.17;;
16272;SDS011;8244;50.044;9.006;2022-10-26T02:09:45;7.38;;;3.65;;
16272;SDS011;8244;50.044;9.006;2022-10-26T02:14:57;13.10;;;4.45;;
16272;SDS011;8244;50.044;9.006;2022-10-26T02:20:10;11.85;;;3.50;;
16272;SDS011;8244;50.044;9.006;2022-10-26T02:25:19;5.82;;;3.20;;
16272;SDS011;8244;50.044;9.006;2022-10-26T02:30:23;7.40;;;3.42;;
16272;SDS011;8244;50.044;9.006;2022-10-26T02:35:27;11.57;;;3.10;;
16272;SDS011;8244;50.044;9.006;2022-10-26T02:40:31;10.25;;;2.63;;
16272;SDS011;8244;50.044;9.006;2022-10-26T02:45:36;8.15;;;2.80;;
16272;SDS011;8244;50.044;9.006;2022-10-26T02:50:44;8.32;;;2.80;;
16272;SDS011;8244;50.044;9.006;2022-10-26T02:55:53;9.07;;;2.80;;
16272;SDS011;8244;50.044;9.006;2022-10-26T03:00:55;6.82;;;3.00;;
16272;SDS011;8244;50.044;9.006;2022-10-26T03:05:59;7.00;;;3.00;;
16272;SDS011;8244;50.044;9.006;2022-10-26T03:11:01;8.20;;;3.10;;
16272;SDS011;8244;50.044;9.006;2022-10-26T03:16:02;7.93;;;2.78;;
16272;SDS011;8244;50.044;9.006;2022-10-26T03:21:05;8.18;;;2.92;;
16272;SDS011;8244;50.044;9.006;2022-10-26T03:26:07;8.30;;;2.88;;
16272;SDS011;8244;50.044;9.006;2022-10-26T03:31:09;7.95;;;2.80;;
16272;SDS011;8244;50.044;9.006;2022-10-26T03:36:12;12.73;;;3.40;;
16272;SDS011;8244;50.044;9.006;2022-10-26T03:41:14;10.20;;;3.35;;
16272;SDS011;8244;50.044;9.006;2022-10-26T03:46:15;7.22;;;2.92;;
16272;SDS011;8244;50.044;9.006;2022-10-26T03:51:18;6.07;;;2.72;;
16272;SDS011;8244;50.044;9.006;2022-10-26T03:56:20;7.38;;;3.00;;
16272;SDS011;8244;50.044;9.006;2022-10-26T04:01:22;10.27;;;2.88;;
16272;SDS011;8244;50.044;9.006;2022-10-26T04:06:25;10.10;;;3.40;;
16272;SDS011;8244;50.044;9.006;2022-10-26T04:11:27;9.85;;;3.40;;
16272;SDS011;8244;50.044;9.006;2022-10-26T04:16:28;7.72;;;3.10;;
16272;SDS011;8244;50.044;9.006;2022-10-26T04:21:31;7.00;;;3.45;;
16272;SDS011;8244;50.044;9.006;2022-10-26T04:26:34;15.63;;;4.13;;
16272;SDS011;8244;50.044;9.006;2022-10-26T04:31:36;10.80;;;3.40;;
16272;SDS011;8244;50.044;9.006;2022-10-26T04:36:39;8.57;;;3.47;;
16272;SDS011;8244;50.044;9.006;2022-10-26T04:41:40;7.55;;;3.90;;
16272;SDS011;8244;50.044;9.006;2022-10-26T04:46:42;7.72;;;3.30;;
16272;SDS011;8244;50.044;9.006;2022-10-26T04:51:45;8.35;;;3.17;;
16272;SDS011;8244;50.044;9.006;2022-10-26T04:56:46;10.63;;;3.70;;
16272;SDS011;8244;50.044;9.006;2022-10-26T05:01:48;10.38;;;3.95;;
16272;SDS011;8244;50.044;9.006;2022-10-26T05:06:52;8.80;;;4.05;;
16272;SDS011;8244;50.044;9.006;2022-10-26T05:11:53;9.25;;;3.50;;
16272;SDS011;8244;50.044;9.006;2022-10-26T05:16:55;11.90;;;3.70;;
16272;SDS011;8244;50.044;9.006;2022-10-26T05:21:58;9.88;;;3.55;;
16272;SDS011;8244;50.044;9.006;2022-10-26T05:27:00;10.82;;;4.05;;
16272;SDS011;8244;50.044;9.006;2022-10-26T05:32:01;9.45;;;4.00;;
16272;SDS011;8244;50.044;9.006;2022-10-26T05:37:04;9.40;;;4.00;;
16272;SDS011;8244;50.044;9.006;2022-10-26T05:42:06;9.45;;;4.20;;
16272;SDS011;8244;50.044;9.006;2022-10-26T05:47:08;12.82;;;3.83;;
16272;SDS011;8244;50.044;9.006;2022-10-26T05:52:11;10.23;;;4.20;;
16272;SDS011;8244;50.044;9.006;2022-10-26T05:57:13;7.40;;;4.03;;
16272;SDS011;8244;50.044;9.006;2022-10-26T06:02:18;11.52;;;4.18;;
16272;SDS011;8244;50.044;9.006;2022-10-26T06:07:33;8.20;;;3.40;;
16272;SDS011;8244;50.044;9.006;2022-10-26T06:12:35;7.28;;;4.25;;
16272;SDS011;8244;50.044;9.006;2022-10-26T06:17:40;8.32;;;3.92;;
16272;SDS011;8244;50.044;9.006;2022-10-26T06:23:03;12.85;;;3.72;;
16272;SDS011;8244;50.044;9.006;2022-10-26T06:28:18;8.80;;;3.85;;
16272;SDS011;8244;50.044;9.006;2022-10-26T06:33:26;10.23;;;3.85;;
16272;SDS011;8244;50.044;9.006;2022-10-26T06:38:31;7.63;;;3.80;;
16272;SDS011;8244;50.044;9.006;2022-10-26T06:43:35;12.95;;;3.78;;
16272;SDS011;8244;50.044;9.006;2022-10-26T06:48:42;7.47;;;3.70;;
16272;SDS011;8244;50.044;9.006;2022-10-26T06:53:54;6.85;;;4.18;;
16272;SDS011;8244;50.044;9.006;2022-10-26T06:58:59;14.00;;;4.10;;
16272;SDS011;8244;50.044;9.006;2022-10-26T07:04:07;9.15;;;3.95;;
16272;SDS011;8244;50.044;9.006;2022-10-26T07:09:10;9.68;;;3.88;;
16272;SDS011;8244;50.044;9.006;2022-10-26T07:14:12;12.90;;;4.88;;
16272;SDS011;8244;50.044;9.006;2022-10-26T07:19:13;9.25;;;3.60;;
16272;SDS011;8244;50.044;9.006;2022-10-26T07:24:16;9.77;;;3.95;;
16272;SDS011;8244;50.044;9.006;2022-10-26T07:29:18;11.38;;;3.65;;
16272;SDS011;8244;50.044;9.006;2022-10-26T07:34:20;9.93;;;3.50;;
16272;SDS011;8244;50.044;9.006;2022-10-26T07:39:23;10.80;;;3.67;;
16272;SDS011;8244;50.044;9.006;2022-10-26T07:44:24;11.55;;;3.88;;
16272;SDS011;8244;50.044;9.006;2022-10-26T07:49:26;7.82;;;3.38;;
16272;SDS011;8244;50.044;9.006;2022-10-26T07:54:30;9.18;;;3.63;;
16272;SDS011;8244;50.044;9.006;2022-10-26T07:59:31;9.60;;;3.60;;
16272;SDS011;8244;50.044;9.006;2022-10-26T08:04:33;8.13;;;3.38;;
16272;SDS011;8244;50.044;9.006;2022-10-26T08:09:36;7.25;;;3.10;;
16272;SDS011;8244;50.044;9.006;2022-10-26T08:14:38;7.47;;;3.20;;
16272;SDS011;8244;50.044;9.006;2022-10-26T08:19:39;7.45;;;2.83;;
16272;SDS011;8244;50.044;9.006;2022-10-26T08:24:42;7.88;;;2.60;;
16272;SDS011;8244;50.044;9.006;2022-10-26T08:29:45;6.68;;;2.97;;
16272;SDS011;8244;50.044;9.006;2022-10-26T08:34:47;11.55;;;2.78;;
16272;SDS011;8244;50.044;9.006;2022-10-26T08:39:50;13.55;;;6.15;;
16272;SDS011;8244;50.044;9.006;2022-10-26T08:44:52;15.05;;;5.72;;
16272;SDS011;8244;50.044;9.006;2022-10-26T08:49:58;12.82;;;5.00;;
16272;SDS011;8244;50.044;9.006;2022-10-26T08:55:03;27.65;;;14.10;;
16272;SDS011;8244;50.044;9.006;2022-10-26T09:00:13;20.35;;;10.95;;
16272;SDS011;8244;50.044;9.006;2022-10-26T09:05:20;17.73;;;7.10;;
16272;SDS011;8244;50.044;9.006;2022-10-26T09:15:55;25.92;;;11.15;;
16272;SDS011;8244;50.044;9.006;2022-10-26T09:21:11;11.45;;;5.55;;
16272;SDS011;8244;50.044;9.006;2022-10-26T09:26:26;15.35;;;6.82;;
16272;SDS011;8244;50.044;9.006;2022-10-26T09:31:33;9.18;;;3.42;;
16272;SDS011;8244;50.044;9.006;2022-10-26T09:36:40;14.20;;;3.33;;
16272;SDS011;8244;50.044;9.006;2022-10-26T09:41:44;22.40;;;11.07;;
16272;SDS011;8244;50.044;9.006;2022-10-26T09:46:51;9.93;;;4.40;;
16272;SDS011;8244;50.044;9.006;2022-10-26T09:51:56;10.25;;;4.30;;
16272;SDS011;8244;50.044;9.006;2022-10-26T09:56:59;9.90;;;3.50;;
16272;SDS011;8244;50.044;9.006;2022-10-26T10:02:07;9.93;;;5.40;;
16272;SDS011;8244;50.044;9.006;2022-10-26T10:07:33;10.65;;;5.10;;
16272;SDS011;8244;50.044;9.006;2022-10-26T10:12:36;5.28;;;2.20;;
16272;SDS011;8244;50.044;9.006;2022-10-26T10:17:38;4.97;;;2.28;;
16272;SDS011;8244;50.044;9.006;2022-10-26T10:22:51;6.90;;;2.30;;
16272;SDS011;8244;50.044;9.006;2022-10-26T10:27:58;3.95;;;2.20;;
16272;SDS011;8244;50.044;9.006;2022-10-26T10:33:03;4.85;;;2.20;;
16272;SDS011;8244;50.044;9.006;2022-10-26T10:38:10;5.70;;;2.30;;
16272;SDS011;8244;50.044;9.006;2022-10-26T10:43:18;6.65;;;2.22;;
16272;SDS011;8244;50.044;9.006;2022-10-26T10:48:21;6.40;;;2.10;;
16272;SDS011;8244;50.044;9.006;2022-10-26T10:53:27;9.73;;;2.58;;
16272;SDS011;8244;50.044;9.006;2022-10-26T10:58:38;6.65;;;2.28;;
16272;SDS011;8244;50.044;9.006;2022-10-26T11:03:49;4.93;;;2.03;;
16272;SDS011;8244;50.044;9.006;2022-10-26T11:09:02;4.75;;;1.98;;
16272;SDS011;8244;50.044;9.006;2022-10-26T11:14:10;6.80;;;2.47;;
16272;SDS011;8244;50.044;9.006;2022-10-26T11:19:16;6.30;;;2.40;;
16272;SDS011;8244;50.044;9.006;2022-10-26T11:24:23;7.10;;;2.10;;
16272;SDS011;8244;50.044;9.006;2022-10-26T11:29:37;5.93;;;2.08;;
16272;SDS011;8244;50.044;9.006;2022-10-26T11:34:44;7.45;;;3.17;;
16272;SDS011;8244;50.044;9.006;2022-10-26T11:39:52;6.28;;;2.60;;
16272;SDS011;8244;50.044;9.006;2022-10-26T11:45:07;4.05;;;2.00;;
16272;SDS011;8244;50.044;9.006;2022-10-26T11:50:14;6.75;;;2.50;;
16272;SDS011;8244;50.044;9.006;2022-10-26T11:55:19;9.15;;;2.55;;
16272;SDS011;8244;50.044;9.006;2022-10-26T12:00:24;7.90;;;2.60;;
16272;SDS011;8244;50.044;9.006;2022-10-26T12:05:32;11.77;;;3.80;;
16272;SDS011;8244;50.044;9.006;2022-10-26T12:10:42;6.97;;;2.65;;
16272;SDS011;8244;50.044;9.006;2022-10-26T12:15:51;6.65;;;2.35;;
16272;SDS011;8244;50.044;9.006;2022-10-26T12:20:59;11.60;;;2.83;;
16272;SDS011;8244;50.044;9.006;2022-10-26T12:31:48;5.88;;;2.10;;
16272;SDS011;8244;50.044;9.006;2022-10-26T12:42:28;6.72;;;2.60;;
16272;SDS011;8244;50.044;9.006;2022-10-26T12:53:04;5.38;;;2.30;;
16272;SDS011;8244;50.044;9.006;2022-10-26T13:03:39;9.23;;;4.03;;
16272;SDS011;8244;50.044;9.006;2022-10-26T13:08:51;7.60;;;3.40;;
16272;SDS011;8244;50.044;9.006;2022-10-26T13:13:56;4.22;;;2.22;;
16272;SDS011;8244;50.044;9.006;2022-10-26T13:19:02;8.48;;;2.63;;
16272;SDS011;8244;50.044;9.006;2022-10-26T13:24:04;6.55;;;2.05;;
16272;SDS011;8244;50.044;9.006;2022-10-26T13:29:13;4.47;;;2.05;;
16272;SDS011;8244;50.044;9.006;2022-10-26T13:34:18;11.18;;;2.00;;
16272;SDS011;8244;50.044;9.006;2022-10-26T13:39:22;9.02;;;2.63;;
16272;SDS011;8244;50.044;9.006;2022-10-26T13:44:28;6.10;;;1.90;;
16272;SDS011;8244;50.044;9.006;2022-10-26T13:49:35;8.90;;;2.30;;
16272;SDS011;8244;50.044;9.006;2022-10-26T13:54:41;8.68;;;2.42;;
16272;SDS011;8244;50.044;9.006;2022-10-26T13:59:46;10.02;;;2.40;;
16272;SDS011;8244;50.044;9.006;2022-10-26T14:04:52;5.68;;;2.40;;
16272;SDS011;8244;50.044;9.006;2022-10-26T14:09:59;5.05;;;1.95;;
16272;SDS011;8244;50.044;9.006;2022-10-26T14:15:02;4.07;;;2.13;;
16272;SDS011;8244;50.044;9.006;2022-10-26T14:20:11;7.25;;;2.22;;
16272;SDS011;8244;50.044;9.006;2022-10-26T14:25:19;6.80;;;2.05;;
16272;SDS011;8244;50.044;9.006;2022-10-26T14:30:24;5.47;;;2.05;;
16272;SDS011;8244;50.044;9.006;2022-10-26T14:35:31;6.30;;;2.50;;
16272;SDS011;8244;50.044;9.006;2022-10-26T14:40:35;9.23;;;2.47;;
16272;SDS011;8244;50.044;9.006;2022-10-26T14:45:36;8.27;;;3.17;;
16272;SDS011;8244;50.044;9.006;2022-10-26T14:50:41;6.88;;;2.63;;
16272;SDS011;8244;50.044;9.006;2022-10-26T14:55:45;10.68;;;2.50;;
16272;SDS011;8244;50.044;9.006;2022-10-26T15:06:25;6.25;;;2.20;;
16272;SDS011;8244;50.044;9.006;2022-10-26T15:11:34;9.60;;;2.30;;
16272;SDS011;8244;50.044;9.006;2022-10-26T15:16:48;8.85;;;3.03;;
16272;SDS011;8244;50.044;9.006;2022-10-26T15:21:54;6.45;;;2.20;;
16272;SDS011;8244;50.044;9.006;2022-10-26T15:26:55;6.63;;;2.38;;
16272;SDS011;8244;50.044;9.006;2022-10-26T15:31:58;4.28;;;2.50;;
16272;SDS011;8244;50.044;9.006;2022-10-26T15:37:01;5.72;;;2.15;;
16272;SDS011;8244;50.044;9.006;2022-10-26T15:42:03;7.13;;;2.60;;
16272;SDS011;8244;50.044;9.006;2022-10-26T15:47:15;8.18;;;2.45;;
16272;SDS011;8244;50.044;9.006;2022-10-26T15:52:20;8.65;;;2.80;;
16272;SDS011;8244;50.044;9.006;2022-10-26T15:57:22;10.35;;;4.10;;
16272;SDS011;8244;50.044;9.006;2022-10-26T16:02:25;11.48;;;5.07;;
16272;SDS011;8244;50.044;9.006;2022-10-26T16:07:29;11.63;;;4.80;;
16272;SDS011;8244;50.044;9.006;2022-10-26T16:12:30;10.80;;;4.40;;
16272;SDS011;8244;50.044;9.006;2022-10-26T16:17:32;8.70;;;3.38;;
16272;SDS011;8244;50.044;9.006;2022-10-26T16:22:35;7.60;;;3.47;;
16272;SDS011;8244;50.044;9.006;2022-10-26T16:27:39;9.80;;;3.78;;
16272;SDS011;8244;50.044;9.006;2022-10-26T16:32:41;10.18;;;3.90;;
16272;SDS011;8244;50.044;9.006;2022-10-26T16:37:44;11.52;;;3.95;;
16272;SDS011;8244;50.044;9.006;2022-10-26T16:42:46;18.00;;;10.13;;
16272;SDS011;8244;50.044;9.006;2022-10-26T16:47:47;14.60;;;7.43;;
16272;SDS011;8244;50.044;9.006;2022-10-26T16:52:50;7.57;;;3.15;;
16272;SDS011;8244;50.044;9.006;2022-10-26T16:57:52;8.60;;;4.00;;
16272;SDS011;8244;50.044;9.006;2022-10-26T17:02:54;11.48;;;4.85;;
16272;SDS011;8244;50.044;9.006;2022-10-26T17:07:57;13.15;;;4.30;;
16272;SDS011;8244;50.044;9.006;2022-10-26T17:12:59;8.25;;;3.53;;
16272;SDS011;8244;50.044;9.006;2022-10-26T17:18:00;9.55;;;3.70;;
16272;SDS011;8244;50.044;9.006;2022-10-26T17:23:03;7.00;;;3.28;;
16272;SDS011;8244;50.044;9.006;2022-10-26T17:28:05;10.27;;;3.47;;
16272;SDS011;8244;50.044;9.006;2022-10-26T17:33:07;12.82;;;4.20;;
16272;SDS011;8244;50.044;9.006;2022-10-26T17:38:10;10.30;;;4.07;;
16272;SDS011;8244;50.044;9.006;2022-10-26T17:43:12;9.90;;;4.80;;
16272;SDS011;8244;50.044;9.006;2022-10-26T17:48:13;10.63;;;4.50;;
16272;SDS011;8244;50.044;9.006;2022-10-26T17:53:16;13.98;;;6.07;;
16272;SDS011;8244;50.044;9.006;2022-10-26T17:58:18;13.52;;;5.03;;
16272;SDS011;8244;50.044;9.006;2022-10-26T18:03:20;9.50;;;4.88;;
16272;SDS011;8244;50.044;9.006;2022-10-26T18:08:23;11.82;;;4.88;;
16272;SDS011;8244;50.044;9.006;2022-10-26T18:13:25;8.02;;;4.43;;
16272;SDS011;8244;50.044;9.006;2022-10-26T18:18:30;11.63;;;4.35;;
16272;SDS011;8244;50.044;9.006;2022-10-26T18:23:33;13.05;;;4.70;;
16272;SDS011;8244;50.044;9.006;2022-10-26T18:28:35;10.93;;;4.50;;
16272;SDS011;8244;50.044;9.006;2022-10-26T18:33:37;12.05;;;4.82;;
16272;SDS011;8244;50.044;9.006;2022-10-26T18:38:40;12.20;;;4.50;;
16272;SDS011;8244;50.044;9.006;2022-10-26T18:43:43;9.30;;;4.82;;
16272;SDS011;8244;50.044;9.006;2022-10-26T18:48:45;12.68;;;4.47;;
16272;SDS011;8244;50.044;9.006;2022-10-26T18:53:48;13.55;;;5.00;;
16272;SDS011;8244;50.044;9.006;2022-10-26T18:58:51;12.35;;;4.80;;
16272;SDS011;8244;50.044;9.006;2022-10-26T19:03:55;10.07;;;5.15;;
16272;SDS011;8244;50.044;9.006;2022-10-26T19:08:59;11.48;;;4.90;;
16272;SDS011;8244;50.044;9.006;2022-10-26T19:14:01;15.93;;;5.28;;
16272;SDS011;8244;50.044;9.006;2022-10-26T19:19:04;13.95;;;5.90;;
16272;SDS011;8244;50.044;9.006;2022-10-26T19:24:10;11.73;;;5.97;;
16272;SDS011;8244;50.044;9.006;2022-10-26T19:29:13;12.73;;;5.53;;
16272;SDS011;8244;50.044;9.006;2022-10-26T19:34:16;9.23;;;5.57;;
16272;SDS011;8244;50.044;9.006;2022-10-26T19:39:19;15.70;;;5.60;;
16272;SDS011;8244;50.044;9.006;2022-10-26T19:44:21;13.65;;;5.70;;
16272;SDS011;8244;50.044;9.006;2022-10-26T19:49:23;16.90;;;6.00;;
16272;SDS011;8244;50.044;9.006;2022-10-26T19:54:26;15.68;;;6.20;;
16272;SDS011;8244;50.044;9.006;2022-10-26T19:59:27;15.60;;;6.55;;
16272;SDS011;8244;50.044;9.006;2022-10-26T20:04:29;15.82;;;6.45;;
16272;SDS011;8244;50.044;9.006;2022-10-26T20:09:32;16.10;;;6.55;;
16272;SDS011;8244;50.044;9.006;2022-10-26T20:14:34;10.30;;;5.68;;
16272;SDS011;8244;50.044;9.006;2022-10-26T20:19:36;19.10;;;6.30;;
16272;SDS011;8244;50.044;9.006;2022-10-26T20:24:39;13.35;;;5.68;;
16272;SDS011;8244;50.044;9.006;2022-10-26T20:29:40;17.23;;;5.82;;
16272;SDS011;8244;50.044;9.006;2022-10-26T20:34:42;18.67;;;7.00;;
16272;SDS011;8244;50.044;9.006;2022-10-26T20:39:46;14.00;;;8.02;;
16272;SDS011;8244;50.044;9.006;2022-10-26T20:44:47;14.93;;;7.47;;
16272;SDS011;8244;50.044;9.006;2022-10-26T20:49:54;11.30;;;6.38;;
16272;SDS011;8244;50.044;9.006;2022-10-26T20:54:59;13.10;;;6.10;;
16272;SDS011;8244;50.044;9.006;2022-10-26T21:00:06;18.60;;;7.07;;
16272;SDS011;8244;50.044;9.006;2022-10-26T21:05:10;14.70;;;7.45;;
16272;SDS011;8244;50.044;9.006;2022-10-26T21:10:14;15.68;;;7.07;;
16272;SDS011;8244;50.044;9.006;2022-10-26T21:15:15;18.83;;;6.70;;
16272;SDS011;8244;50.044;9.006;2022-10-26T21:20:17;14.02;;;6.50;;
16272;SDS011;8244;50.044;9.006;2022-10-26T21:25:20;11.80;;;7.15;;
16272;SDS011;8244;50.044;9.006;2022-10-26T21:30:22;13.32;;;6.05;;
16272;SDS011;8244;50.044;9.006;2022-10-26T21:35:24;10.50;;;5.20;;
16272;SDS011;8244;50.044;9.006;2022-10-26T21:40:26;8.77;;;4.97;;
16272;SDS011;8244;50.044;9.006;2022-10-26T21:45:29;9.00;;;4.50;;
16272;SDS011;8244;50.044;9.006;2022-10-26T21:50:31;15.02;;;5.63;;
16272;SDS011;8244;50.044;9.006;2022-10-26T21:55:34;15.40;;;7.68;;
16272;SDS011;8244;50.044;9.006;2022-10-26T22:00:35;16.35;;;9.02;;
16272;SDS011;8244;50.044;9.006;2022-10-26T22:05:37;18.83;;;8.27;;
16272;SDS011;8244;50.044;9.006;2022-10-26T22:10:40;23.13;;;8.32;;
16272;SDS011;8244;50.044;9.006;2022-10-26T22:15:42;16.50;;;7.68;;
16272;SDS011;8244;50.044;9.006;2022-10-26T22:20:43;16.45;;;7.78;;
16272;SDS011;8244;50.044;9.006;2022-10-26T22:26:00;13.73;;;8.07;;
16272;SDS011;8244;50.044;9.006;2022-10-26T22:31:03;19.27;;;8.63;;
16272;SDS011;8244;50.044;9.006;2022-10-26T22:36:07;12.85;;;7.07;;
16272;SDS011;8244;50.044;9.006;2022-10-26T22:41:11;101.75;;;7.32;;
16272;SDS011;8244;50.044;9.006;2022-10-26T22:46:14;185.25;;;10.85;;
16272;SDS011;8244;50.044;9.006;2022-10-26T22:51:17;13.38;;;7.05;;
16272;SDS011;8244;50.044;9.006;2022-10-26T22:56:21;16.35;;;7.22;;
16272;SDS011;8244;50.044;9.006;2022-10-26T23:01:24;15.30;;;6.88;;
16272;SDS011;8244;50.044;9.006;2022-10-26T23:06:31;13.20;;;5.90;;
16272;SDS011;8244;50.044;9.006;2022-10-26T23:11:34;14.85;;;6.70;;
16272;SDS011;8244;50.044;9.006;2022-10-26T23:16:36;15.63;;;6.43;;
16272;SDS011;8244;50.044;9.006;2022-10-26T23:21:38;12.38;;;6.07;;
16272;SDS011;8244;50.044;9.006;2022-10-26T23:26:40;50.85;;;8.45;;
16272;SDS011;8244;50.044;9.006;2022-10-26T23:31:42;36.20;;;5.47;;
16272;SDS011;8244;50.044;9.006;2022-10-26T23:36:44;15.68;;;5.45;;
16272;SDS011;8244;50.044;9.006;2022-10-26T23:41:48;224.90;;;15.90;;
16272;SDS011;8244;50.044;9.006;2022-10-26T23:46:50;14.10;;;6.53;;
16272;SDS011;8244;50.044;9.006;2022-10-26T23:51:51;25.88;;;7.40;;
16272;SDS011;8244;50.044;9.006;2022-10-26T23:56:54;17.63;;;7.20;;
